Startpagina
METAR-TAF:

METAR-TAF

Vliegvelden :

Luchthaven Kotoka Internationaal

Accra, Ghana

breedte: 05-36N, lengte: 000-10W, hoogte: 68 m

Actueel weer

Dit bericht is 54 minuten geleden gemaakt, om 02:00 UTC
Wind 5 kt uit het westnoordwesten
Temperatuur 26°C
Vochtigheid 94%
Druk 1011 hPa
Zicht: 5000 m
Gebroken wolken op 1000 ft
nevel

METAR: DGAA 290200Z 29005KT 5000 BR BKN010 26/25 Q1011 NOSIG

Tijdstip: 02:54 (02:54 UTC)

Verwachting

Dit bericht is 3 uur en het 54 minuten geleden gemaakt, om 23:00 UTC
Verwachting geldig van 29 om 00 UTC tot 30 om 06 UTC
Wind 5 kt uit het westen
Zicht: 5000 m
nevel
Wijzigt naar
van 29 om 10 UTC tot 29 om 12 UTC
Wind 10 kt uit het zuiden
Zicht: 3000 m
Heiigheid
Wijzigt naar
van 29 om 21 UTC tot 29 om 23 UTC
Wind 5 kt uit het westen
Zicht: 6000 m
Weinig wolken op 1200 ft

TAF: DGAA 282300Z 2900/3006 26005KT 5000 BR NSC BECMG 2910/2912 18010KT 3000 HZ BECMG 2921/2923 27005KT 6000 FEW012

Waarnemingen en weersverwachtingen van meer dan 4000 vliegvelden (METAR en TAF).

De beschikbare stations zijn de gele en rode punten op de kaart.

Ga met uw muis naar het station om de naam te zien.

Klik dan om waarnemingen en weersverwachtingen te zien.

kaart wijzigen: klik op de groene knoppen met een zwart kruis om in te zoomen, op de groene knop met een streepje om uit te zoomen of op de groene pijlen voor aangrenzende kaarten.


METAR-TAF: